sensor_id;sensor_type;location;lat;lon;timestamp;temperature;humidity
1830;DHT22;914;48.118;11.600;2023-03-01T00:01:09;4.30;86.90
1830;DHT22;914;48.118;11.600;2023-03-01T00:03:35;4.40;87.50
1830;DHT22;914;48.118;11.600;2023-03-01T00:06:02;4.50;86.80
1830;DHT22;914;48.118;11.600;2023-03-01T00:08:28;4.10;87.60
1830;DHT22;914;48.118;11.600;2023-03-01T00:11:28;3.90;88.70
1830;DHT22;914;48.118;11.600;2023-03-01T00:13:56;3.80;89.10
1830;DHT22;914;48.118;11.600;2023-03-01T00:16:28;4.00;87.90
1830;DHT22;914;48.118;11.600;2023-03-01T00:18:55;4.00;88.40
1830;DHT22;914;48.118;11.600;2023-03-01T00:21:21;3.80;88.30
1830;DHT22;914;48.118;11.600;2023-03-01T00:23:48;4.00;89.20
1830;DHT22;914;48.118;11.600;2023-03-01T00:26:15;4.30;88.60
1830;DHT22;914;48.118;11.600;2023-03-01T00:28:42;4.30;88.00
1830;DHT22;914;48.118;11.600;2023-03-01T00:31:15;4.10;87.00
1830;DHT22;914;48.118;11.600;2023-03-01T00:33:41;4.00;88.80
1830;DHT22;914;48.118;11.600;2023-03-01T00:36:08;4.00;87.80
1830;DHT22;914;48.118;11.600;2023-03-01T00:38:36;3.80;88.60
1830;DHT22;914;48.118;11.600;2023-03-01T00:41:10;4.20;88.70
1830;DHT22;914;48.118;11.600;2023-03-01T00:43:36;4.10;87.70
1830;DHT22;914;48.118;11.600;2023-03-01T00:46:09;4.20;87.40
1830;DHT22;914;48.118;11.600;2023-03-01T00:48:35;4.00;88.80
1830;DHT22;914;48.118;11.600;2023-03-01T00:51:18;4.10;88.50
1830;DHT22;914;48.118;11.600;2023-03-01T00:53:52;4.40;88.50
1830;DHT22;914;48.118;11.600;2023-03-01T00:56:19;3.70;88.80
1830;DHT22;914;48.118;11.600;2023-03-01T00:58:45;3.60;90.00
1830;DHT22;914;48.118;11.600;2023-03-01T01:01:16;3.90;89.50
1830;DHT22;914;48.118;11.600;2023-03-01T01:04:04;3.70;88.50
1830;DHT22;914;48.118;11.600;2023-03-01T01:06:33;3.80;90.00
1830;DHT22;914;48.118;11.600;2023-03-01T01:08:59;3.90;89.30
1830;DHT22;914;48.118;11.600;2023-03-01T01:11:27;4.10;89.30
1830;DHT22;914;48.118;11.600;2023-03-01T01:13:53;4.00;88.30
1830;DHT22;914;48.118;11.600;2023-03-01T01:16:20;3.60;88.40
1830;DHT22;914;48.118;11.600;2023-03-01T01:18:46;4.00;88.80
1830;DHT22;914;48.118;11.600;2023-03-01T01:21:15;3.90;89.20
1830;DHT22;914;48.118;11.600;2023-03-01T01:23:42;3.90;89.10
1830;DHT22;914;48.118;11.600;2023-03-01T01:26:10;4.30;88.90
1830;DHT22;914;48.118;11.600;2023-03-01T01:28:37;4.00;88.90
1830;DHT22;914;48.118;11.600;2023-03-01T01:31:03;4.20;88.40
1830;DHT22;914;48.118;11.600;2023-03-01T01:33:29;4.30;88.00
1830;DHT22;914;48.118;11.600;2023-03-01T01:35:54;4.30;86.90
1830;DHT22;914;48.118;11.600;2023-03-01T01:38:20;4.10;88.40
1830;DHT22;914;48.118;11.600;2023-03-01T01:40:48;3.90;88.00
1830;DHT22;914;48.118;11.600;2023-03-01T01:43:29;4.20;88.20
1830;DHT22;914;48.118;11.600;2023-03-01T01:46:01;3.80;87.80
1830;DHT22;914;48.118;11.600;2023-03-01T01:48:38;3.50;88.10
1830;DHT22;914;48.118;11.600;2023-03-01T01:51:12;3.60;89.50
1830;DHT22;914;48.118;11.600;2023-03-01T01:53:39;3.80;88.50
1830;DHT22;914;48.118;11.600;2023-03-01T01:56:08;3.80;88.40
1830;DHT22;914;48.118;11.600;2023-03-01T01:58:37;4.10;88.60
1830;DHT22;914;48.118;11.600;2023-03-01T02:01:03;4.00;87.10
1830;DHT22;914;48.118;11.600;2023-03-01T02:03:31;4.10;87.60
1830;DHT22;914;48.118;11.600;2023-03-01T02:06:21;3.90;86.90
1830;DHT22;914;48.118;11.600;2023-03-01T02:08:45;3.90;87.70
1830;DHT22;914;48.118;11.600;2023-03-01T02:11:13;3.30;87.90
1830;DHT22;914;48.118;11.600;2023-03-01T02:13:42;3.20;89.10
1830;DHT22;914;48.118;11.600;2023-03-01T02:16:10;3.40;90.00
1830;DHT22;914;48.118;11.600;2023-03-01T02:18:38;3.60;89.40
1830;DHT22;914;48.118;11.600;2023-03-01T02:23:44;3.90;88.40
1830;DHT22;914;48.118;11.600;2023-03-01T02:26:16;3.90;87.50
1830;DHT22;914;48.118;11.600;2023-03-01T02:28:44;3.80;87.70
1830;DHT22;914;48.118;11.600;2023-03-01T02:31:14;3.40;88.60
1830;DHT22;914;48.118;11.600;2023-03-01T02:34:00;3.00;90.20
1830;DHT22;914;48.118;11.600;2023-03-01T02:36:34;3.30;90.30
1830;DHT22;914;48.118;11.600;2023-03-01T02:39:02;3.70;89.70
1830;DHT22;914;48.118;11.600;2023-03-01T02:41:31;3.30;88.30
1830;DHT22;914;48.118;11.600;2023-03-01T02:43:57;3.20;89.20
1830;DHT22;914;48.118;11.600;2023-03-01T02:46:25;3.50;88.80
1830;DHT22;914;48.118;11.600;2023-03-01T02:48:53;3.60;89.40
1830;DHT22;914;48.118;11.600;2023-03-01T02:56:49;3.30;87.40
1830;DHT22;914;48.118;11.600;2023-03-01T02:59:18;3.20;88.60
1830;DHT22;914;48.118;11.600;2023-03-01T03:01:44;3.50;89.40
1830;DHT22;914;48.118;11.600;2023-03-01T03:04:14;3.40;88.30
1830;DHT22;914;48.118;11.600;2023-03-01T03:06:47;3.10;89.40
1830;DHT22;914;48.118;11.600;2023-03-01T03:09:14;3.00;88.40
1830;DHT22;914;48.118;11.600;2023-03-01T03:11:40;3.10;88.80
1830;DHT22;914;48.118;11.600;2023-03-01T03:14:08;3.20;88.30
1830;DHT22;914;48.118;11.600;2023-03-01T03:16:46;3.10;88.20
1830;DHT22;914;48.118;11.600;2023-03-01T03:19:13;3.10;87.40
1830;DHT22;914;48.118;11.600;2023-03-01T03:21:38;3.30;88.80
1830;DHT22;914;48.118;11.600;2023-03-01T03:24:04;3.70;87.40
1830;DHT22;914;48.118;11.600;2023-03-01T03:26:31;3.50;88.00
1830;DHT22;914;48.118;11.600;2023-03-01T03:28:57;3.50;88.10
1830;DHT22;914;48.118;11.600;2023-03-01T03:31:23;3.60;87.90
1830;DHT22;914;48.118;11.600;2023-03-01T03:33:51;3.10;88.10
1830;DHT22;914;48.118;11.600;2023-03-01T03:36:19;2.70;89.30
1830;DHT22;914;48.118;11.600;2023-03-01T03:38:45;3.00;89.70
1830;DHT22;914;48.118;11.600;2023-03-01T03:41:14;3.20;89.60
1830;DHT22;914;48.118;11.600;2023-03-01T03:43:41;3.50;88.30
1830;DHT22;914;48.118;11.600;2023-03-01T03:46:09;3.60;87.30
1830;DHT22;914;48.118;11.600;2023-03-01T03:48:37;3.00;87.20
1830;DHT22;914;48.118;11.600;2023-03-01T03:51:04;3.20;88.50
1830;DHT22;914;48.118;11.600;2023-03-01T03:53:31;3.30;87.90
1830;DHT22;914;48.118;11.600;2023-03-01T03:55:58;3.40;88.70
1830;DHT22;914;48.118;11.600;2023-03-01T03:58:24;3.20;87.90
1830;DHT22;914;48.118;11.600;2023-03-01T04:00:55;3.30;88.30
1830;DHT22;914;48.118;11.600;2023-03-01T04:03:22;3.30;87.20
1830;DHT22;914;48.118;11.600;2023-03-01T04:05:49;3.20;87.90
1830;DHT22;914;48.118;11.600;2023-03-01T04:08:20;3.60;87.50
1830;DHT22;914;48.118;11.600;2023-03-01T04:10:50;3.60;87.30
1830;DHT22;914;48.118;11.600;2023-03-01T04:13:22;3.30;85.30
1830;DHT22;914;48.118;11.600;2023-03-01T04:15:52;3.20;87.80
1830;DHT22;914;48.118;11.600;2023-03-01T04:18:19;2.70;89.30
1830;DHT22;914;48.118;11.600;2023-03-01T04:20:45;2.90;89.10
1830;DHT22;914;48.118;11.600;2023-03-01T04:23:14;2.90;88.60
1830;DHT22;914;48.118;11.600;2023-03-01T04:25:51;3.20;89.00
1830;DHT22;914;48.118;11.600;2023-03-01T04:28:41;3.10;87.30
1830;DHT22;914;48.118;11.600;2023-03-01T04:31:13;3.30;86.70
1830;DHT22;914;48.118;11.600;2023-03-01T04:33:45;2.80;88.30
1830;DHT22;914;48.118;11.600;2023-03-01T04:36:12;2.80;88.50
1830;DHT22;914;48.118;11.600;2023-03-01T04:38:39;3.00;87.70
1830;DHT22;914;48.118;11.600;2023-03-01T04:41:07;3.00;88.60
1830;DHT22;914;48.118;11.600;2023-03-01T04:43:33;2.90;87.50
1830;DHT22;914;48.118;11.600;2023-03-01T04:46:05;2.90;87.90
1830;DHT22;914;48.118;11.600;2023-03-01T04:48:32;3.40;87.00
1830;DHT22;914;48.118;11.600;2023-03-01T04:50:59;3.60;85.80
1830;DHT22;914;48.118;11.600;2023-03-01T04:53:25;3.60;85.20
1830;DHT22;914;48.118;11.600;2023-03-01T04:55:51;3.00;85.50
1830;DHT22;914;48.118;11.600;2023-03-01T04:58:17;3.00;88.10
1830;DHT22;914;48.118;11.600;2023-03-01T05:00:43;3.00;87.10
1830;DHT22;914;48.118;11.600;2023-03-01T05:03:09;2.90;87.40
1830;DHT22;914;48.118;11.600;2023-03-01T05:05:37;1.90;87.10
1830;DHT22;914;48.118;11.600;2023-03-01T05:08:06;2.30;89.70
1830;DHT22;914;48.118;11.600;2023-03-01T05:10:34;2.50;88.50
1830;DHT22;914;48.118;11.600;2023-03-01T05:13:01;2.70;89.10
1830;DHT22;914;48.118;11.600;2023-03-01T05:15:28;2.60;88.70
1830;DHT22;914;48.118;11.600;2023-03-01T05:17:55;2.90;89.20
1830;DHT22;914;48.118;11.600;2023-03-01T05:20:24;2.70;87.40
1830;DHT22;914;48.118;11.600;2023-03-01T05:22:51;2.60;88.00
1830;DHT22;914;48.118;11.600;2023-03-01T05:25:17;2.70;88.50
1830;DHT22;914;48.118;11.600;2023-03-01T05:27:42;2.90;88.30
1830;DHT22;914;48.118;11.600;2023-03-01T05:30:09;2.50;88.50
1830;DHT22;914;48.118;11.600;2023-03-01T05:32:43;2.50;88.30
1830;DHT22;914;48.118;11.600;2023-03-01T05:35:11;2.60;89.50
1830;DHT22;914;48.118;11.600;2023-03-01T05:37:45;2.10;89.60
1830;DHT22;914;48.118;11.600;2023-03-01T05:40:14;1.80;90.20
1830;DHT22;914;48.118;11.600;2023-03-01T05:42:48;2.10;90.50
1830;DHT22;914;48.118;11.600;2023-03-01T05:45:16;2.20;90.20
1830;DHT22;914;48.118;11.600;2023-03-01T05:47:44;2.50;90.00
1830;DHT22;914;48.118;11.600;2023-03-01T05:50:25;2.00;88.50
1830;DHT22;914;48.118;11.600;2023-03-01T05:52:56;2.10;89.60
1830;DHT22;914;48.118;11.600;2023-03-01T05:55:23;2.00;89.60
1830;DHT22;914;48.118;11.600;2023-03-01T05:57:49;2.20;90.70
1830;DHT22;914;48.118;11.600;2023-03-01T06:00:20;2.40;90.00
1830;DHT22;914;48.118;11.600;2023-03-01T06:02:47;2.60;89.30
1830;DHT22;914;48.118;11.600;2023-03-01T06:05:13;2.50;88.20
1830;DHT22;914;48.118;11.600;2023-03-01T06:07:39;2.50;89.30
1830;DHT22;914;48.118;11.600;2023-03-01T06:10:07;2.60;89.00
1830;DHT22;914;48.118;11.600;2023-03-01T06:12:35;2.80;87.70
1830;DHT22;914;48.118;11.600;2023-03-01T06:15:01;2.50;87.80
1830;DHT22;914;48.118;11.600;2023-03-01T06:17:29;2.20;88.90
1830;DHT22;914;48.118;11.600;2023-03-01T06:19:55;2.30;90.00
1830;DHT22;914;48.118;11.600;2023-03-01T06:22:21;2.30;90.20
1830;DHT22;914;48.118;11.600;2023-03-01T06:24:47;2.50;89.20
1830;DHT22;914;48.118;11.600;2023-03-01T06:27:12;2.70;89.10
1830;DHT22;914;48.118;11.600;2023-03-01T06:29:38;2.60;88.00
1830;DHT22;914;48.118;11.600;2023-03-01T06:32:04;2.80;88.20
1830;DHT22;914;48.118;11.600;2023-03-01T06:34:30;2.80;87.50
1830;DHT22;914;48.118;11.600;2023-03-01T06:36:56;2.40;88.90
1830;DHT22;914;48.118;11.600;2023-03-01T06:39:22;2.60;88.40
1830;DHT22;914;48.118;11.600;2023-03-01T06:41:47;2.50;89.20
1830;DHT22;914;48.118;11.600;2023-03-01T06:44:13;2.20;89.70
1830;DHT22;914;48.118;11.600;2023-03-01T06:46:40;2.40;90.00
1830;DHT22;914;48.118;11.600;2023-03-01T06:49:06;2.60;87.50
1830;DHT22;914;48.118;11.600;2023-03-01T06:51:37;2.60;88.70
1830;DHT22;914;48.118;11.600;2023-03-01T06:54:06;2.10;88.60
1830;DHT22;914;48.118;11.600;2023-03-01T06:56:32;2.10;90.00
1830;DHT22;914;48.118;11.600;2023-03-01T06:58:58;2.20;90.20
1830;DHT22;914;48.118;11.600;2023-03-01T07:01:24;2.40;90.50
1830;DHT22;914;48.118;11.600;2023-03-01T07:03:49;2.60;88.60
1830;DHT22;914;48.118;11.600;2023-03-01T07:06:15;2.40;89.10
1830;DHT22;914;48.118;11.600;2023-03-01T07:08:40;2.40;88.90
1830;DHT22;914;48.118;11.600;2023-03-01T07:11:06;2.40;89.30
1830;DHT22;914;48.118;11.600;2023-03-01T07:13:32;2.50;88.60
1830;DHT22;914;48.118;11.600;2023-03-01T07:16:01;2.60;89.30
1830;DHT22;914;48.118;11.600;2023-03-01T07:18:27;2.60;89.40
1830;DHT22;914;48.118;11.600;2023-03-01T07:20:53;2.30;89.60
1830;DHT22;914;48.118;11.600;2023-03-01T07:23:18;2.30;90.00
1830;DHT22;914;48.118;11.600;2023-03-01T07:25:44;2.90;88.50
1830;DHT22;914;48.118;11.600;2023-03-01T07:28:16;2.90;87.50
1830;DHT22;914;48.118;11.600;2023-03-01T07:30:41;2.60;88.20
1830;DHT22;914;48.118;11.600;2023-03-01T07:33:07;2.40;88.00
1830;DHT22;914;48.118;11.600;2023-03-01T07:35:33;2.40;89.40
1830;DHT22;914;48.118;11.600;2023-03-01T07:37:59;2.50;89.90
1830;DHT22;914;48.118;11.600;2023-03-01T07:40:24;2.60;88.90
1830;DHT22;914;48.118;11.600;2023-03-01T07:42:55;2.30;89.60
1830;DHT22;914;48.118;11.600;2023-03-01T07:45:21;2.40;90.00
1830;DHT22;914;48.118;11.600;2023-03-01T07:47:46;2.40;90.00
1830;DHT22;914;48.118;11.600;2023-03-01T07:50:12;2.60;89.70
1830;DHT22;914;48.118;11.600;2023-03-01T07:52:38;2.60;89.70
1830;DHT22;914;48.118;11.600;2023-03-01T07:55:05;2.70;88.20
1830;DHT22;914;48.118;11.600;2023-03-01T07:57:31;2.50;88.90
1830;DHT22;914;48.118;11.600;2023-03-01T07:59:57;2.60;90.00
1830;DHT22;914;48.118;11.600;2023-03-01T08:02:22;2.60;89.80
1830;DHT22;914;48.118;11.600;2023-03-01T08:04:48;2.60;88.70
1830;DHT22;914;48.118;11.600;2023-03-01T08:07:14;2.70;89.50
1830;DHT22;914;48.118;11.600;2023-03-01T08:09:39;2.80;88.10
1830;DHT22;914;48.118;11.600;2023-03-01T08:12:05;2.40;88.10
1830;DHT22;914;48.118;11.600;2023-03-01T08:14:32;2.60;89.40
1830;DHT22;914;48.118;11.600;2023-03-01T08:16:57;2.50;89.70
1830;DHT22;914;48.118;11.600;2023-03-01T08:19:23;2.70;88.80
1830;DHT22;914;48.118;11.600;2023-03-01T08:21:49;2.90;88.70
1830;DHT22;914;48.118;11.600;2023-03-01T08:24:15;3.20;87.90
1830;DHT22;914;48.118;11.600;2023-03-01T08:26:40;2.90;87.60
1830;DHT22;914;48.118;11.600;2023-03-01T08:29:06;3.00;87.80
1830;DHT22;914;48.118;11.600;2023-03-01T08:31:36;3.10;87.70
1830;DHT22;914;48.118;11.600;2023-03-01T08:34:05;3.20;87.70
1830;DHT22;914;48.118;11.600;2023-03-01T08:36:33;3.40;87.90
1830;DHT22;914;48.118;11.600;2023-03-01T08:39:00;3.10;87.30
1830;DHT22;914;48.118;11.600;2023-03-01T08:41:26;3.30;87.70
1830;DHT22;914;48.118;11.600;2023-03-01T08:43:52;3.30;87.80
1830;DHT22;914;48.118;11.600;2023-03-01T08:46:18;3.40;88.10
1830;DHT22;914;48.118;11.600;2023-03-01T08:48:44;3.20;86.90
1830;DHT22;914;48.118;11.600;2023-03-01T08:51:15;3.30;87.80
1830;DHT22;914;48.118;11.600;2023-03-01T08:53:41;3.60;88.20
1830;DHT22;914;48.118;11.600;2023-03-01T08:56:08;3.60;87.20
1830;DHT22;914;48.118;11.600;2023-03-01T08:58:35;3.70;86.50
1830;DHT22;914;48.118;11.600;2023-03-01T09:01:00;3.70;85.70
1830;DHT22;914;48.118;11.600;2023-03-01T09:03:27;3.60;86.20
1830;DHT22;914;48.118;11.600;2023-03-01T09:05:53;3.70;87.20
1830;DHT22;914;48.118;11.600;2023-03-01T09:08:19;3.90;85.00
1830;DHT22;914;48.118;11.600;2023-03-01T09:10:45;3.60;86.00
1830;DHT22;914;48.118;11.600;2023-03-01T09:13:11;3.80;86.80
1830;DHT22;914;48.118;11.600;2023-03-01T09:15:38;3.70;85.50
1830;DHT22;914;48.118;11.600;2023-03-01T09:18:04;3.50;86.40
1830;DHT22;914;48.118;11.600;2023-03-01T09:20:31;3.70;86.40
1830;DHT22;914;48.118;11.600;2023-03-01T09:22:57;4.00;86.80
1830;DHT22;914;48.118;11.600;2023-03-01T09:25:23;4.00;86.40
1830;DHT22;914;48.118;11.600;2023-03-01T09:27:53;3.50;87.30
1830;DHT22;914;48.118;11.600;2023-03-01T09:30:20;4.20;87.00
1830;DHT22;914;48.118;11.600;2023-03-01T09:32:45;3.90;86.10
1830;DHT22;914;48.118;11.600;2023-03-01T09:35:12;3.90;87.20
1830;DHT22;914;48.118;11.600;2023-03-01T09:37:38;4.20;86.30
1830;DHT22;914;48.118;11.600;2023-03-01T09:40:15;4.40;84.50
1830;DHT22;914;48.118;11.600;2023-03-01T09:43:01;4.20;85.40
1830;DHT22;914;48.118;11.600;2023-03-01T09:45:30;4.40;85.20
1830;DHT22;914;48.118;11.600;2023-03-01T09:47:59;4.30;84.90
1830;DHT22;914;48.118;11.600;2023-03-01T09:50:28;4.50;84.50
1830;DHT22;914;48.118;11.600;2023-03-01T09:53:05;4.90;81.60
1830;DHT22;914;48.118;11.600;2023-03-01T09:58:47;3.60;86.40
1830;DHT22;914;48.118;11.600;2023-03-01T10:09:38;4.40;85.80
1830;DHT22;914;48.118;11.600;2023-03-01T10:12:15;4.70;83.80
1830;DHT22;914;48.118;11.600;2023-03-01T10:17:31;4.50;83.90
1830;DHT22;914;48.118;11.600;2023-03-01T10:20:21;4.90;84.20
1830;DHT22;914;48.118;11.600;2023-03-01T10:22:48;4.90;83.50
1830;DHT22;914;48.118;11.600;2023-03-01T10:28:30;4.60;84.10
1830;DHT22;914;48.118;11.600;2023-03-01T10:30:57;4.60;85.00
1830;DHT22;914;48.118;11.600;2023-03-01T10:33:29;4.20;83.60
1830;DHT22;914;48.118;11.600;2023-03-01T10:35:56;4.00;83.50
1830;DHT22;914;48.118;11.600;2023-03-01T10:38:21;4.50;85.00
1830;DHT22;914;48.118;11.600;2023-03-01T10:41:04;4.80;83.20
1830;DHT22;914;48.118;11.600;2023-03-01T10:43:46;4.70;83.40
1830;DHT22;914;48.118;11.600;2023-03-01T10:46:28;4.90;84.50
1830;DHT22;914;48.118;11.600;2023-03-01T10:49:14;5.20;82.20
1830;DHT22;914;48.118;11.600;2023-03-01T10:51:41;4.30;82.90
1830;DHT22;914;48.118;11.600;2023-03-01T10:54:22;4.20;82.90
1830;DHT22;914;48.118;11.600;2023-03-01T10:56:53;4.80;83.40
1830;DHT22;914;48.118;11.600;2023-03-01T10:59:30;5.10;84.10
1830;DHT22;914;48.118;11.600;2023-03-01T11:02:29;5.20;84.00
1830;DHT22;914;48.118;11.600;2023-03-01T11:05:28;5.70;81.60
1830;DHT22;914;48.118;11.600;2023-03-01T11:08:00;4.70;81.00
1830;DHT22;914;48.118;11.600;2023-03-01T11:12:53;5.00;82.40
1830;DHT22;914;48.118;11.600;2023-03-01T11:15:27;4.40;83.10
1830;DHT22;914;48.118;11.600;2023-03-01T11:17:54;4.50;83.80
1830;DHT22;914;48.118;11.600;2023-03-01T11:20:37;4.90;83.50
1830;DHT22;914;48.118;11.600;2023-03-01T11:23:10;5.10;84.10
1830;DHT22;914;48.118;11.600;2023-03-01T11:25:39;5.50;84.10
1830;DHT22;914;48.118;11.600;2023-03-01T11:28:07;5.60;83.60
1830;DHT22;914;48.118;11.600;2023-03-01T11:33:24;6.20;78.50
1830;DHT22;914;48.118;11.600;2023-03-01T11:36:00;6.50;79.40
1830;DHT22;914;48.118;11.600;2023-03-01T11:38:29;7.40;82.50
1830;DHT22;914;48.118;11.600;2023-03-01T11:41:06;7.80;76.80
1830;DHT22;914;48.118;11.600;2023-03-01T11:52:08;6.60;80.00
1830;DHT22;914;48.118;11.600;2023-03-01T12:11:29;7.20;81.70
1830;DHT22;914;48.118;11.600;2023-03-01T12:22:20;9.00;73.10
1830;DHT22;914;48.118;11.600;2023-03-01T12:28:12;9.30;71.20
1830;DHT22;914;48.118;11.600;2023-03-01T12:30:44;8.10;76.20
1830;DHT22;914;48.118;11.600;2023-03-01T12:36:12;8.40;76.90
1830;DHT22;914;48.118;11.600;2023-03-01T12:39:08;9.10;74.60
1830;DHT22;914;48.118;11.600;2023-03-01T12:42:05;9.10;73.30
1830;DHT22;914;48.118;11.600;2023-03-01T12:45:05;9.60;74.40
1830;DHT22;914;48.118;11.600;2023-03-01T12:50:46;9.50;72.90
1830;DHT22;914;48.118;11.600;2023-03-01T12:53:27;9.70;72.30
1830;DHT22;914;48.118;11.600;2023-03-01T12:56:18;10.20;72.10
1830;DHT22;914;48.118;11.600;2023-03-01T12:58:56;10.30;69.10
1830;DHT22;914;48.118;11.600;2023-03-01T13:01:44;10.30;67.90
1830;DHT22;914;48.118;11.600;2023-03-01T13:06:58;11.20;67.60
1830;DHT22;914;48.118;11.600;2023-03-01T13:09:51;11.50;71.10
1830;DHT22;914;48.118;11.600;2023-03-01T13:12:44;12.60;65.10
1830;DHT22;914;48.118;11.600;2023-03-01T13:20:27;9.50;68.20
1830;DHT22;914;48.118;11.600;2023-03-01T13:23:05;9.70;72.30
1830;DHT22;914;48.118;11.600;2023-03-01T13:25:31;8.90;68.70
1830;DHT22;914;48.118;11.600;2023-03-01T13:28:58;7.20;76.20
1830;DHT22;914;48.118;11.600;2023-03-01T13:33:43;9.00;77.80
1830;DHT22;914;48.118;11.600;2023-03-01T13:36:10;9.60;74.80
1830;DHT22;914;48.118;11.600;2023-03-01T13:38:48;9.80;72.80
1830;DHT22;914;48.118;11.600;2023-03-01T13:44:20;9.80;72.80
1830;DHT22;914;48.118;11.600;2023-03-01T13:46:48;10.20;73.00
1830;DHT22;914;48.118;11.600;2023-03-01T13:49:18;10.60;70.40
1830;DHT22;914;48.118;11.600;2023-03-01T13:51:49;11.50;70.30
1830;DHT22;914;48.118;11.600;2023-03-01T13:54:18;10.70;67.90
1830;DHT22;914;48.118;11.600;2023-03-01T13:56:44;10.80;71.00
1830;DHT22;914;48.118;11.600;2023-03-01T13:59:19;9.20;71.40
1830;DHT22;914;48.118;11.600;2023-03-01T14:01:59;8.40;74.20
1830;DHT22;914;48.118;11.600;2023-03-01T14:04:28;8.80;77.80
1830;DHT22;914;48.118;11.600;2023-03-01T14:07:21;9.50;76.90
1830;DHT22;914;48.118;11.600;2023-03-01T14:10:07;10.00;74.30
1830;DHT22;914;48.118;11.600;2023-03-01T14:12:52;9.60;71.30
1830;DHT22;914;48.118;11.600;2023-03-01T14:15:34;9.80;73.20
1830;DHT22;914;48.118;11.600;2023-03-01T14:20:41;10.10;72.40
1830;DHT22;914;48.118;11.600;2023-03-01T14:23:14;8.40;71.10
1830;DHT22;914;48.118;11.600;2023-03-01T14:25:50;8.80;77.00
1830;DHT22;914;48.118;11.600;2023-03-01T14:30:49;9.20;75.60
1830;DHT22;914;48.118;11.600;2023-03-01T14:33:22;8.30;73.40
1830;DHT22;914;48.118;11.600;2023-03-01T14:38:39;8.60;77.20
1830;DHT22;914;48.118;11.600;2023-03-01T14:41:18;9.20;77.50
1830;DHT22;914;48.118;11.600;2023-03-01T14:43:47;9.60;76.40
1830;DHT22;914;48.118;11.600;2023-03-01T14:46:36;9.80;75.20
1830;DHT22;914;48.118;11.600;2023-03-01T14:49:23;9.80;75.10
1830;DHT22;914;48.118;11.600;2023-03-01T14:51:55;9.70;74.60
1830;DHT22;914;48.118;11.600;2023-03-01T14:54:29;9.70;74.90
1830;DHT22;914;48.118;11.600;2023-03-01T14:56:59;10.20;73.80
1830;DHT22;914;48.118;11.600;2023-03-01T14:59:25;9.80;74.10
1830;DHT22;914;48.118;11.600;2023-03-01T15:01:54;8.80;74.50
1830;DHT22;914;48.118;11.600;2023-03-01T15:04:21;8.70;77.60
1830;DHT22;914;48.118;11.600;2023-03-01T15:06:51;9.20;77.00
1830;DHT22;914;48.118;11.600;2023-03-01T15:09:17;9.70;76.10
1830;DHT22;914;48.118;11.600;2023-03-01T15:11:44;8.90;76.80
1830;DHT22;914;48.118;11.600;2023-03-01T15:14:40;8.90;79.00
1830;DHT22;914;48.118;11.600;2023-03-01T15:17:34;9.50;78.00
1830;DHT22;914;48.118;11.600;2023-03-01T15:20:03;9.60;76.20
1830;DHT22;914;48.118;11.600;2023-03-01T15:22:30;9.70;76.90
1830;DHT22;914;48.118;11.600;2023-03-01T15:24:58;9.50;77.00
1830;DHT22;914;48.118;11.600;2023-03-01T15:27:25;9.60;77.90
1830;DHT22;914;48.118;11.600;2023-03-01T15:29:56;10.10;74.10
1830;DHT22;914;48.118;11.600;2023-03-01T15:32:33;10.40;74.10
1830;DHT22;914;48.118;11.600;2023-03-01T15:35:09;10.50;74.60
1830;DHT22;914;48.118;11.600;2023-03-01T15:37:49;10.40;74.10
1830;DHT22;914;48.118;11.600;2023-03-01T15:40:19;9.80;75.60
1830;DHT22;914;48.118;11.600;2023-03-01T15:42:46;9.40;77.20
1830;DHT22;914;48.118;11.600;2023-03-01T15:45:23;9.40;77.00
1830;DHT22;914;48.118;11.600;2023-03-01T15:47:58;9.50;77.90
1830;DHT22;914;48.118;11.600;2023-03-01T15:50:33;9.50;77.60
1830;DHT22;914;48.118;11.600;2023-03-01T15:53:01;9.20;77.10
1830;DHT22;914;48.118;11.600;2023-03-01T15:55:28;9.40;77.80
1830;DHT22;914;48.118;11.600;2023-03-01T15:58:17;9.30;78.10
1830;DHT22;914;48.118;11.600;2023-03-01T16:00:44;9.40;78.60
1830;DHT22;914;48.118;11.600;2023-03-01T16:03:11;9.00;77.70
1830;DHT22;914;48.118;11.600;2023-03-01T16:05:37;9.00;79.20
1830;DHT22;914;48.118;11.600;2023-03-01T16:08:04;8.90;79.30
1830;DHT22;914;48.118;11.600;2023-03-01T16:10:32;8.70;79.90
1830;DHT22;914;48.118;11.600;2023-03-01T16:12:58;8.60;80.10
1830;DHT22;914;48.118;11.600;2023-03-01T16:15:29;8.70;81.00
1830;DHT22;914;48.118;11.600;2023-03-01T16:17:55;8.60;80.20
1830;DHT22;914;48.118;11.600;2023-03-01T16:20:24;8.70;81.30
1830;DHT22;914;48.118;11.600;2023-03-01T16:22:50;8.70;80.70
1830;DHT22;914;48.118;11.600;2023-03-01T16:25:18;8.80;80.30
1830;DHT22;914;48.118;11.600;2023-03-01T16:27:46;8.80;80.80
1830;DHT22;914;48.118;11.600;2023-03-01T16:30:18;8.90;80.60
1830;DHT22;914;48.118;11.600;2023-03-01T16:32:45;8.80;80.80
1830;DHT22;914;48.118;11.600;2023-03-01T16:35:12;8.90;81.10
1830;DHT22;914;48.118;11.600;2023-03-01T16:37:39;8.80;81.00
1830;DHT22;914;48.118;11.600;2023-03-01T16:40:19;8.40;81.30
1830;DHT22;914;48.118;11.600;2023-03-01T16:42:47;8.60;82.10
1830;DHT22;914;48.118;11.600;2023-03-01T16:45:13;8.80;81.70
1830;DHT22;914;48.118;11.600;2023-03-01T16:47:42;8.80;81.50
1830;DHT22;914;48.118;11.600;2023-03-01T16:50:08;8.60;82.10
1830;DHT22;914;48.118;11.600;2023-03-01T16:52:34;8.60;82.00
1830;DHT22;914;48.118;11.600;2023-03-01T16:55:01;8.50;81.90
1830;DHT22;914;48.118;11.600;2023-03-01T16:57:27;8.60;82.00
1830;DHT22;914;48.118;11.600;2023-03-01T16:59:53;8.60;81.70
1830;DHT22;914;48.118;11.600;2023-03-01T17:02:19;8.60;82.00
1830;DHT22;914;48.118;11.600;2023-03-01T17:04:51;8.40;82.10
1830;DHT22;914;48.118;11.600;2023-03-01T17:07:18;8.00;82.70
1830;DHT22;914;48.118;11.600;2023-03-01T17:09:43;7.80;83.80
1830;DHT22;914;48.118;11.600;2023-03-01T17:12:11;7.70;83.90
1830;DHT22;914;48.118;11.600;2023-03-01T17:14:37;7.60;84.30
1830;DHT22;914;48.118;11.600;2023-03-01T17:17:04;7.50;84.50
1830;DHT22;914;48.118;11.600;2023-03-01T17:19:30;7.40;84.50
1830;DHT22;914;48.118;11.600;2023-03-01T17:21:57;7.30;84.90
1830;DHT22;914;48.118;11.600;2023-03-01T17:24:23;7.00;85.40
1830;DHT22;914;48.118;11.600;2023-03-01T17:26:48;6.90;85.90
1830;DHT22;914;48.118;11.600;2023-03-01T17:29:18;6.90;86.10
1830;DHT22;914;48.118;11.600;2023-03-01T17:31:43;6.90;85.70
1830;DHT22;914;48.118;11.600;2023-03-01T17:34:09;6.90;85.70
1830;DHT22;914;48.118;11.600;2023-03-01T17:36:36;6.80;86.10
1830;DHT22;914;48.118;11.600;2023-03-01T17:39:09;6.90;86.30
1830;DHT22;914;48.118;11.600;2023-03-01T17:41:35;6.70;85.80
1830;DHT22;914;48.118;11.600;2023-03-01T17:44:01;6.60;86.60
1830;DHT22;914;48.118;11.600;2023-03-01T17:46:26;6.50;87.10
1830;DHT22;914;48.118;11.600;2023-03-01T17:48:52;6.50;86.90
1830;DHT22;914;48.118;11.600;2023-03-01T17:51:18;6.60;87.00
1830;DHT22;914;48.118;11.600;2023-03-01T17:53:45;6.60;86.80
1830;DHT22;914;48.118;11.600;2023-03-01T17:56:11;6.60;86.60
1830;DHT22;914;48.118;11.600;2023-03-01T17:58:37;6.50;86.70
1830;DHT22;914;48.118;11.600;2023-03-01T18:01:08;6.50;86.90
1830;DHT22;914;48.118;11.600;2023-03-01T18:03:36;6.40;86.20
1830;DHT22;914;48.118;11.600;2023-03-01T18:06:09;6.20;87.40
1830;DHT22;914;48.118;11.600;2023-03-01T18:08:34;6.30;87.90
1830;DHT22;914;48.118;11.600;2023-03-01T18:11:00;6.30;87.70